sensor_id;sensor_type;location;lat;lon;timestamp;pressure;altitude;pressure_sealevel;temperature;humidity
25650;BME280;13505;45.196;5.696;2023-03-01T05:02:31;99354.91;;;4.98;57.87
25650;BME280;13505;45.196;5.696;2023-03-01T05:07:21;99356.56;;;5.02;57.72
25650;BME280;13505;45.196;5.696;2023-03-01T05:12:13;99356.72;;;4.95;57.93
25650;BME280;13505;45.196;5.696;2023-03-01T05:17:03;99357.66;;;4.92;57.95
25650;BME280;13505;45.196;5.696;2023-03-01T05:21:54;99356.00;;;4.86;57.94
25650;BME280;13505;45.196;5.696;2023-03-01T05:26:56;99349.03;;;4.87;57.70
25650;BME280;13505;45.196;5.696;2023-03-01T05:31:46;99353.44;;;4.85;58.07
25650;BME280;13505;45.196;5.696;2023-03-01T05:36:37;99344.56;;;4.94;57.50
25650;BME280;13505;45.196;5.696;2023-03-01T05:41:28;99341.03;;;4.95;57.56
25650;BME280;13505;45.196;5.696;2023-03-01T05:46:18;99349.88;;;4.87;57.29
25650;BME280;13505;45.196;5.696;2023-03-01T05:51:08;99339.41;;;4.91;58.20
25650;BME280;13505;45.196;5.696;2023-03-01T05:55:59;99340.13;;;4.97;58.86
25650;BME280;13505;45.196;5.696;2023-03-01T06:00:50;99347.97;;;4.97;57.91
25650;BME280;13505;45.196;5.696;2023-03-01T06:05:40;99341.72;;;5.05;58.52
25650;BME280;13505;45.196;5.696;2023-03-01T06:10:31;99352.31;;;4.97;58.15
25650;BME280;13505;45.196;5.696;2023-03-01T06:15:22;99346.34;;;4.92;58.95
25650;BME280;13505;45.196;5.696;2023-03-01T06:20:19;99346.53;;;4.81;58.00
25650;BME280;13505;45.196;5.696;2023-03-01T06:25:12;99350.09;;;4.78;58.54
25650;BME280;13505;45.196;5.696;2023-03-01T06:30:03;99347.38;;;4.83;59.20
25650;BME280;13505;45.196;5.696;2023-03-01T06:34:53;99344.75;;;4.83;58.83
25650;BME280;13505;45.196;5.696;2023-03-01T06:39:43;99344.75;;;4.83;59.05
25650;BME280;13505;45.196;5.696;2023-03-01T06:44:34;99343.88;;;4.84;59.31
25650;BME280;13505;45.196;5.696;2023-03-01T06:49:24;99343.91;;;4.82;58.61
25650;BME280;13505;45.196;5.696;2023-03-01T06:54:15;99342.94;;;4.86;59.93
25650;BME280;13505;45.196;5.696;2023-03-01T06:59:05;99356.81;;;4.90;59.43
25650;BME280;13505;45.196;5.696;2023-03-01T07:03:56;99354.22;;;4.90;58.98
25650;BME280;13505;45.196;5.696;2023-03-01T07:08:46;99351.81;;;4.79;58.24
25650;BME280;13505;45.196;5.696;2023-03-01T07:13:37;99359.59;;;4.81;58.57
25650;BME280;13505;45.196;5.696;2023-03-01T07:18:27;99350.06;;;4.80;59.13
25650;BME280;13505;45.196;5.696;2023-03-01T07:23:18;99358.69;;;4.85;59.52
25650;BME280;13505;45.196;5.696;2023-03-01T07:28:08;99361.19;;;4.89;59.39
25650;BME280;13505;45.196;5.696;2023-03-01T07:32:59;99359.44;;;4.88;59.53
25650;BME280;13505;45.196;5.696;2023-03-01T07:37:49;99360.34;;;4.87;58.81
25650;BME280;13505;45.196;5.696;2023-03-01T07:42:39;99355.22;;;4.83;58.95
25650;BME280;13505;45.196;5.696;2023-03-01T07:47:30;99358.69;;;4.85;59.44
25650;BME280;13505;45.196;5.696;2023-03-01T07:52:20;99356.06;;;4.85;58.96
25650;BME280;13505;45.196;5.696;2023-03-01T07:57:11;99349.13;;;4.84;58.53
25650;BME280;13505;45.196;5.696;2023-03-01T08:02:02;99349.88;;;4.89;59.07
25650;BME280;13505;45.196;5.696;2023-03-01T08:06:53;99339.41;;;4.89;58.77
25650;BME280;13505;45.196;5.696;2023-03-01T08:11:43;99342.03;;;4.89;59.21
25650;BME280;13505;45.196;5.696;2023-03-01T08:16:34;99340.22;;;4.93;58.47
25650;BME280;13505;45.196;5.696;2023-03-01T08:21:25;99341.13;;;4.92;58.58
25650;BME280;13505;45.196;5.696;2023-03-01T08:26:18;99344.63;;;4.91;58.24
25650;BME280;13505;45.196;5.696;2023-03-01T08:31:30;99354.09;;;4.96;58.11
25650;BME280;13505;45.196;5.696;2023-03-01T08:36:23;99346.19;;;4.99;58.58
25650;BME280;13505;45.196;5.696;2023-03-01T08:41:13;99350.97;;;5.20;58.24
25650;BME280;13505;45.196;5.696;2023-03-01T08:46:04;99352.75;;;5.21;57.38
25650;BME280;13505;45.196;5.696;2023-03-01T08:50:55;99343.13;;;5.20;57.44
25650;BME280;13505;45.196;5.696;2023-03-01T08:55:46;99336.91;;;5.25;57.81
25650;BME280;13505;45.196;5.696;2023-03-01T09:00:36;99337.88;;;5.23;56.19
25650;BME280;13505;45.196;5.696;2023-03-01T09:05:26;99328.13;;;5.29;57.35
25650;BME280;13505;45.196;5.696;2023-03-01T09:10:17;99336.59;;;5.41;56.70
25650;BME280;13505;45.196;5.696;2023-03-01T09:15:08;99327.88;;;5.40;56.45
25650;BME280;13505;45.196;5.696;2023-03-01T09:19:58;99327.56;;;5.54;57.42
25650;BME280;13505;45.196;5.696;2023-03-01T09:24:49;99326.13;;;5.41;56.31
25650;BME280;13505;45.196;5.696;2023-03-01T09:29:40;99325.78;;;5.56;55.88
25650;BME280;13505;45.196;5.696;2023-03-01T09:34:30;99329.97;;;5.24;55.68
25650;BME280;13505;45.196;5.696;2023-03-01T09:39:21;99320.53;;;5.56;56.58
25650;BME280;13505;45.196;5.696;2023-03-01T09:49:05;99318.25;;;5.80;54.83
25650;BME280;13505;45.196;5.696;2023-03-01T09:54:04;99319.06;;;5.82;55.17
25650;BME280;13505;45.196;5.696;2023-03-01T10:09:33;99288.84;;;6.07;54.66
25650;BME280;13505;45.196;5.696;2023-03-01T10:19:32;99298.69;;;5.20;55.34
25650;BME280;13505;45.196;5.696;2023-03-01T10:24:24;99272.00;;;5.43;55.78
25650;BME280;13505;45.196;5.696;2023-03-01T10:29:15;99278.31;;;5.34;55.26
25650;BME280;13505;45.196;5.696;2023-03-01T10:39:19;99265.16;;;5.37;55.64
25650;BME280;13505;45.196;5.696;2023-03-01T10:44:40;99259.34;;;5.62;56.48
25650;BME280;13505;45.196;5.696;2023-03-01T10:49:31;99258.13;;;6.45;55.03
25650;BME280;13505;45.196;5.696;2023-03-01T10:54:30;99253.16;;;6.97;54.51
25650;BME280;13505;45.196;5.696;2023-03-01T11:04:14;99253.06;;;7.01;54.35
25650;BME280;13505;45.196;5.696;2023-03-01T11:09:21;99247.91;;;7.28;53.47
25650;BME280;13505;45.196;5.696;2023-03-01T11:14:17;99238.34;;;7.52;53.09
25650;BME280;13505;45.196;5.696;2023-03-01T11:24:02;99224.28;;;7.54;51.77
25650;BME280;13505;45.196;5.696;2023-03-01T11:28:56;99219.91;;;7.55;51.88
25650;BME280;13505;45.196;5.696;2023-03-01T11:34:11;99214.44;;;7.61;51.71
25650;BME280;13505;45.196;5.696;2023-03-01T11:39:52;99216.94;;;7.64;52.10
25650;BME280;13505;45.196;5.696;2023-03-01T11:44:42;99205.47;;;7.68;51.35
25650;BME280;13505;45.196;5.696;2023-03-01T12:05:09;99178.56;;;7.87;49.58
25650;BME280;13505;45.196;5.696;2023-03-01T12:10:20;99169.81;;;7.87;50.06
25650;BME280;13505;45.196;5.696;2023-03-01T12:36:06;99158.72;;;8.04;48.62
25650;BME280;13505;45.196;5.696;2023-03-01T12:51:38;99145.91;;;7.94;50.02
25650;BME280;13505;45.196;5.696;2023-03-01T12:56:31;99136.00;;;8.03;49.30
25650;BME280;13505;45.196;5.696;2023-03-01T13:17:43;99101.44;;;8.37;47.44
25650;BME280;13505;45.196;5.696;2023-03-01T13:22:34;99096.84;;;8.43;47.44
25650;BME280;13505;45.196;5.696;2023-03-01T13:27:25;99099.16;;;8.52;46.98
25650;BME280;13505;45.196;5.696;2023-03-01T13:32:30;99105.63;;;8.43;47.32
25650;BME280;13505;45.196;5.696;2023-03-01T13:37:26;99105.78;;;8.62;47.10
25650;BME280;13505;45.196;5.696;2023-03-01T13:42:46;99090.25;;;8.78;47.71
25650;BME280;13505;45.196;5.696;2023-03-01T13:47:38;99090.69;;;8.90;46.73
25650;BME280;13505;45.196;5.696;2023-03-01T13:52:48;99083.78;;;8.87;47.93
25650;BME280;13505;45.196;5.696;2023-03-01T13:57:38;99076.72;;;8.88;46.19
25650;BME280;13505;45.196;5.696;2023-03-01T14:02:29;99080.47;;;8.60;46.30
25650;BME280;13505;45.196;5.696;2023-03-01T14:07:21;99087.94;;;8.93;46.51
25650;BME280;13505;45.196;5.696;2023-03-01T14:22:24;99080.28;;;8.87;46.70
25650;BME280;13505;45.196;5.696;2023-03-01T14:27:17;99082.72;;;8.91;46.95
25650;BME280;13505;45.196;5.696;2023-03-01T14:37:30;99096.69;;;8.93;46.70
25650;BME280;13505;45.196;5.696;2023-03-01T14:42:23;99097.72;;;8.67;46.23
25650;BME280;13505;45.196;5.696;2023-03-01T14:47:25;99086.19;;;8.71;47.39
25650;BME280;13505;45.196;5.696;2023-03-01T14:52:28;99080.53;;;8.80;47.21
25650;BME280;13505;45.196;5.696;2023-03-01T14:57:24;99086.28;;;8.90;46.70
25650;BME280;13505;45.196;5.696;2023-03-01T15:02:17;99091.53;;;8.90;46.74
25650;BME280;13505;45.196;5.696;2023-03-01T15:07:12;99090.13;;;8.59;48.51
25650;BME280;13505;45.196;5.696;2023-03-01T15:17:32;99119.28;;;8.53;47.57
25650;BME280;13505;45.196;5.696;2023-03-01T15:22:26;99128.41;;;8.43;47.86
25650;BME280;13505;45.196;5.696;2023-03-01T15:27:20;99107.72;;;8.33;47.75
25650;BME280;13505;45.196;5.696;2023-03-01T15:47:27;99091.81;;;7.65;49.46
25650;BME280;13505;45.196;5.696;2023-03-01T15:52:26;99090.69;;;7.72;50.00
25650;BME280;13505;45.196;5.696;2023-03-01T15:57:19;99089.59;;;7.78;49.67
25650;BME280;13505;45.196;5.696;2023-03-01T16:02:11;99102.78;;;7.51;49.75
25650;BME280;13505;45.196;5.696;2023-03-01T16:07:02;99100.28;;;7.48;50.17
25650;BME280;13505;45.196;5.696;2023-03-01T16:11:54;99105.78;;;7.40;49.83
25650;BME280;13505;45.196;5.696;2023-03-01T16:16:45;99096.50;;;7.30;50.75
25650;BME280;13505;45.196;5.696;2023-03-01T16:21:36;99105.69;;;7.16;50.15
25650;BME280;13505;45.196;5.696;2023-03-01T16:26:27;99108.94;;;6.97;51.52
25650;BME280;13505;45.196;5.696;2023-03-01T16:31:20;99115.13;;;6.66;52.08
25650;BME280;13505;45.196;5.696;2023-03-01T16:36:11;99122.25;;;6.61;52.78
25650;BME280;13505;45.196;5.696;2023-03-01T16:41:02;99112.28;;;6.44;52.73
25650;BME280;13505;45.196;5.696;2023-03-01T16:45:53;99118.81;;;6.31;53.68
25650;BME280;13505;45.196;5.696;2023-03-01T16:50:43;99129.28;;;6.31;53.78
25650;BME280;13505;45.196;5.696;2023-03-01T16:55:33;99134.78;;;6.21;53.99
25650;BME280;13505;45.196;5.696;2023-03-01T17:00:24;99133.44;;;6.08;54.55
25650;BME280;13505;45.196;5.696;2023-03-01T17:05:14;99137.31;;;5.93;54.70
25650;BME280;13505;45.196;5.696;2023-03-01T17:10:07;99148.94;;;5.82;55.47
25650;BME280;13505;45.196;5.696;2023-03-01T17:14:58;99154.44;;;5.71;54.77
25650;BME280;13505;45.196;5.696;2023-03-01T17:19:48;99169.91;;;5.81;54.40
25650;BME280;13505;45.196;5.696;2023-03-01T17:24:40;99160.44;;;5.75;54.41
25650;BME280;13505;45.196;5.696;2023-03-01T17:29:31;99168.38;;;5.73;54.31
25650;BME280;13505;45.196;5.696;2023-03-01T17:34:23;99172.03;;;5.66;54.91
25650;BME280;13505;45.196;5.696;2023-03-01T17:39:14;99175.34;;;5.73;55.51
25650;BME280;13505;45.196;5.696;2023-03-01T17:44:04;99179.22;;;5.56;55.75
25650;BME280;13505;45.196;5.696;2023-03-01T17:48:55;99177.38;;;5.62;55.21
25650;BME280;13505;45.196;5.696;2023-03-01T17:53:45;99185.34;;;5.57;55.56
25650;BME280;13505;45.196;5.696;2023-03-01T17:58:36;99191.50;;;5.54;55.44
25650;BME280;13505;45.196;5.696;2023-03-01T18:03:28;99196.72;;;5.54;56.48
25650;BME280;13505;45.196;5.696;2023-03-01T18:08:18;99191.72;;;5.45;56.12
25650;BME280;13505;45.196;5.696;2023-03-01T18:13:09;99195.94;;;5.51;55.92
25650;BME280;13505;45.196;5.696;2023-03-01T18:17:59;99199.47;;;5.50;56.15
25650;BME280;13505;45.196;5.696;2023-03-01T18:22:50;99199.34;;;5.54;56.32
25650;BME280;13505;45.196;5.696;2023-03-01T18:27:41;99206.38;;;5.54;55.79
25650;BME280;13505;45.196;5.696;2023-03-01T18:32:32;99201.88;;;5.57;55.90
25650;BME280;13505;45.196;5.696;2023-03-01T18:37:22;99202.88;;;5.53;55.83
25650;BME280;13505;45.196;5.696;2023-03-01T18:42:13;99206.41;;;5.51;56.20
25650;BME280;13505;45.196;5.696;2023-03-01T18:47:05;99200.53;;;5.42;56.33
25650;BME280;13505;45.196;5.696;2023-03-01T18:51:55;99198.84;;;5.40;56.29
25650;BME280;13505;45.196;5.696;2023-03-01T18:56:46;99199.66;;;5.42;55.91
25650;BME280;13505;45.196;5.696;2023-03-01T19:01:36;99211.72;;;5.48;56.43
25650;BME280;13505;45.196;5.696;2023-03-01T19:06:29;99211.09;;;5.38;56.24
25650;BME280;13505;45.196;5.696;2023-03-01T19:11:20;99201.34;;;5.44;56.92
25650;BME280;13505;45.196;5.696;2023-03-01T19:16:19;99204.69;;;5.51;56.25
25650;BME280;13505;45.196;5.696;2023-03-01T19:21:10;99204.75;;;5.48;56.30
25650;BME280;13505;45.196;5.696;2023-03-01T19:26:03;99206.63;;;5.41;56.17
25650;BME280;13505;45.196;5.696;2023-03-01T19:31:05;99206.78;;;5.37;56.73
25650;BME280;13505;45.196;5.696;2023-03-01T19:35:56;99193.53;;;5.43;56.73
25650;BME280;13505;45.196;5.696;2023-03-01T19:40:46;99198.66;;;5.48;56.17
25650;BME280;13505;45.196;5.696;2023-03-01T19:45:37;99183.84;;;5.47;56.46
25650;BME280;13505;45.196;5.696;2023-03-01T19:50:27;99188.22;;;5.46;56.32
25650;BME280;13505;45.196;5.696;2023-03-01T19:55:17;99192.53;;;5.49;56.87
25650;BME280;13505;45.196;5.696;2023-03-01T20:00:08;99192.03;;;5.33;56.47
25650;BME280;13505;45.196;5.696;2023-03-01T20:04:59;99196.31;;;5.37;56.27
25650;BME280;13505;45.196;5.696;2023-03-01T20:09:49;99198.50;;;5.54;56.21
25650;BME280;13505;45.196;5.696;2023-03-01T20:14:39;99191.81;;;5.42;56.04
25650;BME280;13505;45.196;5.696;2023-03-01T20:19:30;99200.25;;;5.53;56.33
25650;BME280;13505;45.196;5.696;2023-03-01T20:24:20;99198.44;;;5.57;56.63
25650;BME280;13505;45.196;5.696;2023-03-01T20:29:11;99197.06;;;5.40;56.50
25650;BME280;13505;45.196;5.696;2023-03-01T20:34:02;99188.59;;;5.30;56.76
25650;BME280;13505;45.196;5.696;2023-03-01T20:38:53;99201.28;;;5.46;57.00
25650;BME280;13505;45.196;5.696;2023-03-01T20:43:44;99201.19;;;5.51;56.29
25650;BME280;13505;45.196;5.696;2023-03-01T20:48:42;99208.53;;;5.36;55.89
25650;BME280;13505;45.196;5.696;2023-03-01T20:53:33;99202.88;;;5.53;56.33
25650;BME280;13505;45.196;5.696;2023-03-01T20:58:23;99205.34;;;5.59;55.69
25650;BME280;13505;45.196;5.696;2023-03-01T21:03:14;99210.53;;;5.61;55.76
25650;BME280;13505;45.196;5.696;2023-03-01T21:08:04;99206.00;;;5.68;55.59
25650;BME280;13505;45.196;5.696;2023-03-01T21:12:54;99196.31;;;5.71;55.54
25650;BME280;13505;45.196;5.696;2023-03-01T21:17:45;99190.13;;;5.74;55.67
25650;BME280;13505;45.196;5.696;2023-03-01T21:22:35;99189.22;;;5.77;55.71
25650;BME280;13505;45.196;5.696;2023-03-01T21:27:25;99186.63;;;5.75;55.23
25650;BME280;13505;45.196;5.696;2023-03-01T21:32:16;99177.84;;;5.78;55.34
25650;BME280;13505;45.196;5.696;2023-03-01T21:37:07;99186.59;;;5.77;55.38
25650;BME280;13505;45.196;5.696;2023-03-01T21:42:00;99167.50;;;5.71;56.06
25650;BME280;13505;45.196;5.696;2023-03-01T21:46:52;99161.34;;;5.74;55.25
25650;BME280;13505;45.196;5.696;2023-03-01T21:51:43;99165.59;;;5.78;55.23
25650;BME280;13505;45.196;5.696;2023-03-01T21:56:34;99164.09;;;5.69;56.55
25650;BME280;13505;45.196;5.696;2023-03-01T22:01:28;99165.91;;;5.66;56.42
25650;BME280;13505;45.196;5.696;2023-03-01T22:06:21;99173.03;;;5.61;57.03
25650;BME280;13505;45.196;5.696;2023-03-01T22:11:12;99166.09;;;5.59;56.18
25650;BME280;13505;45.196;5.696;2023-03-01T22:16:03;99168.19;;;5.45;56.48
25650;BME280;13505;45.196;5.696;2023-03-01T22:20:53;99153.34;;;5.09;57.55
25650;BME280;13505;45.196;5.696;2023-03-01T22:25:44;99150.88;;;5.05;57.51
25650;BME280;13505;45.196;5.696;2023-03-01T22:30:34;99140.69;;;4.92;58.56
25650;BME280;13505;45.196;5.696;2023-03-01T22:35:25;99148.88;;;5.14;58.45
25650;BME280;13505;45.196;5.696;2023-03-01T22:40:15;99158.47;;;5.14;58.49
25650;BME280;13505;45.196;5.696;2023-03-01T22:45:06;99159.91;;;5.27;57.74
25650;BME280;13505;45.196;5.696;2023-03-01T22:49:56;99168.28;;;5.40;57.75
25650;BME280;13505;45.196;5.696;2023-03-01T22:54:46;99166.75;;;5.33;57.57
25650;BME280;13505;45.196;5.696;2023-03-01T22:59:37;99167.56;;;5.35;57.75
